sensor_id;sensor_type;location;lat;lon;timestamp;pressure;altitude;pressure_sealevel;temperature;humidity
9335;BME280;4706;41.844;26.082;2022-12-07T00:01:14;101014.34;;;10.04;88.33
9335;BME280;4706;41.844;26.082;2022-12-07T00:03:42;101009.94;;;10.03;88.55
9335;BME280;4706;41.844;26.082;2022-12-07T00:06:09;101005.78;;;10.06;88.75
9335;BME280;4706;41.844;26.082;2022-12-07T00:08:36;100998.06;;;10.08;88.72
9335;BME280;4706;41.844;26.082;2022-12-07T00:11:10;100996.50;;;10.02;88.59
9335;BME280;4706;41.844;26.082;2022-12-07T00:13:36;101005.53;;;10.02;88.81
9335;BME280;4706;41.844;26.082;2022-12-07T00:16:07;100996.88;;;9.85;89.30
9335;BME280;4706;41.844;26.082;2022-12-07T00:18:34;101008.09;;;9.93;89.05
9335;BME280;4706;41.844;26.082;2022-12-07T00:21:04;100998.16;;;9.97;88.58
9335;BME280;4706;41.844;26.082;2022-12-07T00:23:30;101005.94;;;9.85;89.06
9335;BME280;4706;41.844;26.082;2022-12-07T00:25:56;100995.91;;;9.65;89.55
9335;BME280;4706;41.844;26.082;2022-12-07T00:28:27;101007.44;;;9.67;90.13
9335;BME280;4706;41.844;26.082;2022-12-07T00:31:00;100994.56;;;9.63;89.65
9335;BME280;4706;41.844;26.082;2022-12-07T00:33:26;100998.28;;;9.82;88.55
9335;BME280;4706;41.844;26.082;2022-12-07T00:35:58;100982.47;;;9.59;88.99
9335;BME280;4706;41.844;26.082;2022-12-07T00:38:24;100998.94;;;9.64;88.52
9335;BME280;4706;41.844;26.082;2022-12-07T00:40:57;101009.38;;;9.67;88.30
9335;BME280;4706;41.844;26.082;2022-12-07T00:43:23;101006.94;;;9.55;89.08
9335;BME280;4706;41.844;26.082;2022-12-07T00:45:48;101005.66;;;9.42;89.96
9335;BME280;4706;41.844;26.082;2022-12-07T00:48:14;101010.03;;;9.43;90.17
9335;BME280;4706;41.844;26.082;2022-12-07T00:50:39;101014.09;;;9.51;89.97
9335;BME280;4706;41.844;26.082;2022-12-07T00:53:05;101013.53;;;9.59;89.85
9335;BME280;4706;41.844;26.082;2022-12-07T00:55:34;101005.44;;;9.78;88.98
9335;BME280;4706;41.844;26.082;2022-12-07T00:58:00;100990.09;;;9.72;89.44
9335;BME280;4706;41.844;26.082;2022-12-07T01:00:25;101006.03;;;9.75;89.38
9335;BME280;4706;41.844;26.082;2022-12-07T01:02:51;100999.16;;;9.72;89.54
9335;BME280;4706;41.844;26.082;2022-12-07T01:05:17;100999.19;;;9.67;89.18
9335;BME280;4706;41.844;26.082;2022-12-07T01:07:42;101006.63;;;9.67;89.18
9335;BME280;4706;41.844;26.082;2022-12-07T01:10:08;100994.78;;;9.66;89.81
9335;BME280;4706;41.844;26.082;2022-12-07T01:12:34;100999.91;;;9.83;90.34
9335;BME280;4706;41.844;26.082;2022-12-07T01:15:00;100996.81;;;9.95;90.35
9335;BME280;4706;41.844;26.082;2022-12-07T01:17:26;100988.84;;;9.93;90.45
9335;BME280;4706;41.844;26.082;2022-12-07T01:19:51;100983.38;;;9.88;90.38
9335;BME280;4706;41.844;26.082;2022-12-07T01:22:17;100980.81;;;10.02;89.89
9335;BME280;4706;41.844;26.082;2022-12-07T01:24:42;100981.22;;;10.19;88.78
9335;BME280;4706;41.844;26.082;2022-12-07T01:27:08;100976.88;;;10.13;89.11
9335;BME280;4706;41.844;26.082;2022-12-07T01:29:33;100983.72;;;10.16;89.69
9335;BME280;4706;41.844;26.082;2022-12-07T01:31:59;100982.63;;;10.17;89.77
9335;BME280;4706;41.844;26.082;2022-12-07T01:34:24;100973.25;;;10.18;89.39
9335;BME280;4706;41.844;26.082;2022-12-07T01:36:49;100977.94;;;10.17;89.22
9335;BME280;4706;41.844;26.082;2022-12-07T01:39:15;100975.75;;;10.14;89.26
9335;BME280;4706;41.844;26.082;2022-12-07T01:41:41;100980.09;;;10.26;88.30
9335;BME280;4706;41.844;26.082;2022-12-07T01:44:21;100976.88;;;10.13;89.14
9335;BME280;4706;41.844;26.082;2022-12-07T01:46:50;100973.31;;;10.13;89.27
9335;BME280;4706;41.844;26.082;2022-12-07T01:51:49;100959.59;;;10.08;89.55
9335;BME280;4706;41.844;26.082;2022-12-07T01:54:17;100961.50;;;10.12;89.56
9335;BME280;4706;41.844;26.082;2022-12-07T01:56:53;100964.56;;;10.06;89.80
9335;BME280;4706;41.844;26.082;2022-12-07T01:59:22;100952.53;;;9.96;90.22
9335;BME280;4706;41.844;26.082;2022-12-07T02:01:50;100936.91;;;9.97;89.49
9335;BME280;4706;41.844;26.082;2022-12-07T02:04:15;100934.91;;;10.03;88.86
9335;BME280;4706;41.844;26.082;2022-12-07T02:06:42;100941.53;;;9.96;89.08
9335;BME280;4706;41.844;26.082;2022-12-07T02:09:10;100942.47;;;9.87;89.81
9335;BME280;4706;41.844;26.082;2022-12-07T02:11:35;100940.09;;;9.70;91.18
9335;BME280;4706;41.844;26.082;2022-12-07T02:14:01;100955.63;;;9.90;91.16
9335;BME280;4706;41.844;26.082;2022-12-07T02:17:08;100947.41;;;9.85;91.42
9335;BME280;4706;41.844;26.082;2022-12-07T02:25:08;100947.41;;;9.85;92.05
9335;BME280;4706;41.844;26.082;2022-12-07T02:32:54;100931.53;;;9.82;92.60
9335;BME280;4706;41.844;26.082;2022-12-07T02:43:12;100925.78;;;9.78;93.55
9335;BME280;4706;41.844;26.082;2022-12-07T02:45:41;100941.09;;;9.89;93.25
9335;BME280;4706;41.844;26.082;2022-12-07T02:48:10;100936.91;;;9.92;93.03
9335;BME280;4706;41.844;26.082;2022-12-07T02:50:37;100921.88;;;9.84;93.26
9335;BME280;4706;41.844;26.082;2022-12-07T02:53:03;100927.81;;;9.96;92.73
9335;BME280;4706;41.844;26.082;2022-12-07T02:55:34;100937.09;;;10.06;92.29
9335;BME280;4706;41.844;26.082;2022-12-07T03:00:44;100913.50;;;10.00;92.61
9335;BME280;4706;41.844;26.082;2022-12-07T03:03:15;100908.53;;;10.02;92.91
9335;BME280;4706;41.844;26.082;2022-12-07T03:11:17;100928.06;;;10.00;93.75
9335;BME280;4706;41.844;26.082;2022-12-07T03:13:59;100930.03;;;9.94;94.15
9335;BME280;4706;41.844;26.082;2022-12-07T03:16:56;100927.53;;;9.98;93.94
9335;BME280;4706;41.844;26.082;2022-12-07T03:19:24;100921.56;;;10.20;92.82
9335;BME280;4706;41.844;26.082;2022-12-07T03:22:00;100928.41;;;10.22;92.80
9335;BME280;4706;41.844;26.082;2022-12-07T03:24:33;100929.09;;;10.09;93.69
9335;BME280;4706;41.844;26.082;2022-12-07T03:27:13;100911.06;;;9.98;94.20
9335;BME280;4706;41.844;26.082;2022-12-07T03:29:47;100927.09;;;10.15;93.76
9335;BME280;4706;41.844;26.082;2022-12-07T03:34:54;100922.16;;;10.17;93.90
9335;BME280;4706;41.844;26.082;2022-12-07T03:37:29;100913.41;;;10.10;94.19
9335;BME280;4706;41.844;26.082;2022-12-07T03:40:15;100911.28;;;10.02;94.73
9335;BME280;4706;41.844;26.082;2022-12-07T03:42:43;100915.03;;;10.11;94.59
9335;BME280;4706;41.844;26.082;2022-12-07T03:45:09;100904.84;;;10.16;94.44
9335;BME280;4706;41.844;26.082;2022-12-07T03:48:46;100916.31;;;10.24;93.62
9335;BME280;4706;41.844;26.082;2022-12-07T03:50:50;100920.53;;;10.11;94.36
9335;BME280;4706;41.844;26.082;2022-12-07T03:53:26;100919.47;;;10.07;94.75
9335;BME280;4706;41.844;26.082;2022-12-07T03:55:55;100877.03;;;9.89;94.84
9335;BME280;4706;41.844;26.082;2022-12-07T03:58:22;100910.97;;;10.08;94.95
9335;BME280;4706;41.844;26.082;2022-12-07T04:00:49;100917.28;;;10.09;95.08
9335;BME280;4706;41.844;26.082;2022-12-07T04:03:15;100915.03;;;10.11;95.46
9335;BME280;4706;41.844;26.082;2022-12-07T04:05:41;100919.66;;;10.15;94.92
9335;BME280;4706;41.844;26.082;2022-12-07T04:08:07;100908.66;;;10.20;94.20
9335;BME280;4706;41.844;26.082;2022-12-07T04:10:33;100898.75;;;10.19;93.60
9335;BME280;4706;41.844;26.082;2022-12-07T04:12:58;100908.59;;;10.31;93.19
9335;BME280;4706;41.844;26.082;2022-12-07T04:15:24;100919.03;;;10.29;94.35
9335;BME280;4706;41.844;26.082;2022-12-07T04:17:49;100919.84;;;10.29;94.45
9335;BME280;4706;41.844;26.082;2022-12-07T04:20:16;100922.03;;;10.32;94.33
9335;BME280;4706;41.844;26.082;2022-12-07T04:22:41;100907.47;;;10.32;94.22
9335;BME280;4706;41.844;26.082;2022-12-07T04:25:07;100915.06;;;10.40;93.88
9335;BME280;4706;41.844;26.082;2022-12-07T04:27:32;100909.56;;;10.40;93.31
9335;BME280;4706;41.844;26.082;2022-12-07T04:29:58;100907.63;;;10.40;93.67
9335;BME280;4706;41.844;26.082;2022-12-07T04:32:24;100911.03;;;10.32;93.99
9335;BME280;4706;41.844;26.082;2022-12-07T04:34:50;100910.47;;;10.30;94.10
9335;BME280;4706;41.844;26.082;2022-12-07T04:37:15;100905.53;;;10.32;93.86
9335;BME280;4706;41.844;26.082;2022-12-07T04:39:42;100912.31;;;10.40;93.79
9335;BME280;4706;41.844;26.082;2022-12-07T04:42:10;100911.91;;;10.28;94.26
9335;BME280;4706;41.844;26.082;2022-12-07T04:44:35;100915.19;;;10.25;94.35
9335;BME280;4706;41.844;26.082;2022-12-07T04:47:01;100915.47;;;10.28;93.90
9335;BME280;4706;41.844;26.082;2022-12-07T04:49:27;100910.25;;;10.27;93.80
9335;BME280;4706;41.844;26.082;2022-12-07T04:51:52;100910.16;;;10.37;93.15
9335;BME280;4706;41.844;26.082;2022-12-07T04:54:18;100909.88;;;10.38;93.52
9335;BME280;4706;41.844;26.082;2022-12-07T04:56:44;100921.53;;;10.54;92.90
9335;BME280;4706;41.844;26.082;2022-12-07T04:59:10;100903.34;;;10.29;93.98
9335;BME280;4706;41.844;26.082;2022-12-07T05:01:36;100908.75;;;10.39;93.59
9335;BME280;4706;41.844;26.082;2022-12-07T05:04:01;100905.91;;;10.50;93.17
9335;BME280;4706;41.844;26.082;2022-12-07T05:06:27;100916.19;;;10.39;94.07
9335;BME280;4706;41.844;26.082;2022-12-07T05:08:53;100912.16;;;10.31;94.87
9335;BME280;4706;41.844;26.082;2022-12-07T05:11:18;100915.84;;;10.16;96.09
9335;BME280;4706;41.844;26.082;2022-12-07T05:14:08;100918.59;;;10.11;96.70
9335;BME280;4706;41.844;26.082;2022-12-07T05:16:34;100919.72;;;10.10;96.95
9335;BME280;4706;41.844;26.082;2022-12-07T05:18:59;100909.34;;;10.02;97.08
9335;BME280;4706;41.844;26.082;2022-12-07T05:21:25;100909.84;;;10.09;96.36
9335;BME280;4706;41.844;26.082;2022-12-07T05:23:50;100914.16;;;10.15;96.40
9335;BME280;4706;41.844;26.082;2022-12-07T05:26:16;100923.19;;;10.21;95.85
9335;BME280;4706;41.844;26.082;2022-12-07T05:28:42;100919.47;;;10.12;96.21
9335;BME280;4706;41.844;26.082;2022-12-07T05:31:07;100920.03;;;10.09;96.67
9335;BME280;4706;41.844;26.082;2022-12-07T05:33:33;100919.78;;;10.05;96.78
9335;BME280;4706;41.844;26.082;2022-12-07T05:35:58;100921.31;;;10.16;96.12
9335;BME280;4706;41.844;26.082;2022-12-07T05:38:24;100925.75;;;10.41;94.94
9335;BME280;4706;41.844;26.082;2022-12-07T05:40:51;100914.94;;;10.26;95.73
9335;BME280;4706;41.844;26.082;2022-12-07T05:43:16;100909.75;;;10.19;96.04
9335;BME280;4706;41.844;26.082;2022-12-07T05:45:42;100917.41;;;10.22;96.41
9335;BME280;4706;41.844;26.082;2022-12-07T05:48:07;100919.75;;;10.39;95.01
9335;BME280;4706;41.844;26.082;2022-12-07T05:50:33;100914.84;;;10.36;95.10
9335;BME280;4706;41.844;26.082;2022-12-07T05:52:59;100907.81;;;10.20;95.51
9335;BME280;4706;41.844;26.082;2022-12-07T05:55:24;100906.28;;;10.09;97.09
9335;BME280;4706;41.844;26.082;2022-12-07T05:57:50;100920.28;;;10.12;97.44
9335;BME280;4706;41.844;26.082;2022-12-07T06:00:33;100932.34;;;10.11;98.04
9335;BME280;4706;41.844;26.082;2022-12-07T06:02:59;100929.13;;;10.38;96.72
9335;BME280;4706;41.844;26.082;2022-12-07T06:05:24;100925.72;;;10.47;95.62
9335;BME280;4706;41.844;26.082;2022-12-07T06:07:50;100920.03;;;10.38;96.12
9335;BME280;4706;41.844;26.082;2022-12-07T06:10:18;100922.03;;;10.32;95.47
9335;BME280;4706;41.844;26.082;2022-12-07T06:12:43;100921.13;;;10.42;95.04
9335;BME280;4706;41.844;26.082;2022-12-07T06:15:11;100925.53;;;10.38;95.62
9335;BME280;4706;41.844;26.082;2022-12-07T06:17:38;100932.22;;;10.27;96.60
9335;BME280;4706;41.844;26.082;2022-12-07T06:20:05;100927.69;;;10.12;97.79
9335;BME280;4706;41.844;26.082;2022-12-07T06:22:31;100918.97;;;10.05;98.73
9335;BME280;4706;41.844;26.082;2022-12-07T06:24:56;100927.69;;;10.12;98.65
9335;BME280;4706;41.844;26.082;2022-12-07T06:27:22;100936.81;;;10.36;96.85
9335;BME280;4706;41.844;26.082;2022-12-07T06:29:47;100930.22;;;10.37;96.39
9335;BME280;4706;41.844;26.082;2022-12-07T06:32:13;100941.31;;;10.22;97.84
9335;BME280;4706;41.844;26.082;2022-12-07T06:34:38;100925.72;;;10.17;98.04
9335;BME280;4706;41.844;26.082;2022-12-07T06:37:04;100937.72;;;10.32;97.64
9335;BME280;4706;41.844;26.082;2022-12-07T06:39:30;100937.31;;;10.43;97.02
9335;BME280;4706;41.844;26.082;2022-12-07T06:41:56;100932.38;;;10.40;97.09
9335;BME280;4706;41.844;26.082;2022-12-07T06:44:22;100945.31;;;10.40;97.49
9335;BME280;4706;41.844;26.082;2022-12-07T06:46:49;100938.59;;;10.27;98.39
9335;BME280;4706;41.844;26.082;2022-12-07T06:49:15;100933.25;;;10.36;98.37
9335;BME280;4706;41.844;26.082;2022-12-07T06:51:42;100935.72;;;10.37;98.21
9335;BME280;4706;41.844;26.082;2022-12-07T06:54:12;100922.84;;;10.33;98.69
9335;BME280;4706;41.844;26.082;2022-12-07T06:56:38;100926.13;;;10.35;97.44
9335;BME280;4706;41.844;26.082;2022-12-07T06:59:04;100928.34;;;10.57;96.19
9335;BME280;4706;41.844;26.082;2022-12-07T07:01:32;100942.00;;;10.67;95.63
9335;BME280;4706;41.844;26.082;2022-12-07T07:03:58;100933.03;;;10.56;96.92
9335;BME280;4706;41.844;26.082;2022-12-07T07:06:23;100939.97;;;10.54;97.83
9335;BME280;4706;41.844;26.082;2022-12-07T07:08:49;100932.25;;;10.21;99.66
9335;BME280;4706;41.844;26.082;2022-12-07T07:11:15;100939.28;;;10.38;100.00
9335;BME280;4706;41.844;26.082;2022-12-07T07:13:40;100937.53;;;10.47;99.19
9335;BME280;4706;41.844;26.082;2022-12-07T07:16:06;100938.94;;;10.44;98.92
9335;BME280;4706;41.844;26.082;2022-12-07T07:18:32;100928.09;;;10.29;100.00
9335;BME280;4706;41.844;26.082;2022-12-07T07:20:58;100927.59;;;10.22;100.00
9335;BME280;4706;41.844;26.082;2022-12-07T07:23:24;100926.81;;;10.16;100.00
9335;BME280;4706;41.844;26.082;2022-12-07T07:25:49;100921.09;;;10.13;100.00
9335;BME280;4706;41.844;26.082;2022-12-07T07:28:16;100932.53;;;10.25;100.00
9335;BME280;4706;41.844;26.082;2022-12-07T07:30:41;100931.31;;;10.36;100.00
9335;BME280;4706;41.844;26.082;2022-12-07T07:33:07;100934.31;;;10.40;100.00
9335;BME280;4706;41.844;26.082;2022-12-07T07:35:33;100940.28;;;10.47;100.00
9335;BME280;4706;41.844;26.082;2022-12-07T07:37:59;100946.28;;;10.54;100.00
9335;BME280;4706;41.844;26.082;2022-12-07T07:40:25;100939.81;;;10.64;100.00
9335;BME280;4706;41.844;26.082;2022-12-07T07:42:52;100942.78;;;10.73;100.00
9335;BME280;4706;41.844;26.082;2022-12-07T07:45:23;100937.28;;;10.73;100.00
9335;BME280;4706;41.844;26.082;2022-12-07T07:47:50;100938.66;;;10.70;100.00
9335;BME280;4706;41.844;26.082;2022-12-07T07:50:16;100940.66;;;10.64;100.00
9335;BME280;4706;41.844;26.082;2022-12-07T07:52:42;100946.63;;;10.72;100.00
9335;BME280;4706;41.844;26.082;2022-12-07T07:55:08;100936.31;;;10.82;100.00
9335;BME280;4706;41.844;26.082;2022-12-07T07:57:35;100928.59;;;10.84;100.00
9335;BME280;4706;41.844;26.082;2022-12-07T08:00:01;100942.28;;;10.89;100.00
9335;BME280;4706;41.844;26.082;2022-12-07T08:02:28;100940.00;;;10.97;100.00
9335;BME280;4706;41.844;26.082;2022-12-07T08:04:55;100943.97;;;11.09;100.00
9335;BME280;4706;41.844;26.082;2022-12-07T08:07:20;100943.53;;;11.02;100.00
9335;BME280;4706;41.844;26.082;2022-12-07T08:09:46;100939.94;;;11.02;100.00
9335;BME280;4706;41.844;26.082;2022-12-07T08:12:12;100947.44;;;10.96;100.00
9335;BME280;4706;41.844;26.082;2022-12-07T08:14:37;100947.38;;;11.01;100.00
9335;BME280;4706;41.844;26.082;2022-12-07T08:17:03;100944.84;;;11.05;100.00
9335;BME280;4706;41.844;26.082;2022-12-07T08:19:28;100946.72;;;11.28;99.83
9335;BME280;4706;41.844;26.082;2022-12-07T08:21:55;100942.31;;;11.32;100.00
9335;BME280;4706;41.844;26.082;2022-12-07T08:24:21;100939.47;;;11.37;99.50
9335;BME280;4706;41.844;26.082;2022-12-07T08:26:47;100936.94;;;11.41;98.95
9335;BME280;4706;41.844;26.082;2022-12-07T08:29:13;100927.41;;;11.33;100.00
9335;BME280;4706;41.844;26.082;2022-12-07T08:31:39;100933.19;;;11.32;100.00
9335;BME280;4706;41.844;26.082;2022-12-07T08:34:04;100928.66;;;11.22;100.00
9335;BME280;4706;41.844;26.082;2022-12-07T08:36:30;100921.44;;;11.26;100.00
9335;BME280;4706;41.844;26.082;2022-12-07T08:38:55;100933.97;;;11.37;100.00
9335;BME280;4706;41.844;26.082;2022-12-07T08:41:21;100922.56;;;11.44;99.54
9335;BME280;4706;41.844;26.082;2022-12-07T08:43:46;100921.59;;;11.35;100.00
9335;BME280;4706;41.844;26.082;2022-12-07T08:46:13;100926.38;;;11.48;100.00
9335;BME280;4706;41.844;26.082;2022-12-07T08:51:13;100924.56;;;11.38;100.00
9335;BME280;4706;41.844;26.082;2022-12-07T08:53:39;100921.31;;;11.55;98.76
9335;BME280;4706;41.844;26.082;2022-12-07T08:56:05;100922.19;;;11.51;99.39
9335;BME280;4706;41.844;26.082;2022-12-07T08:58:33;100927.09;;;11.54;98.51
9335;BME280;4706;41.844;26.082;2022-12-07T09:00:59;100920.63;;;11.45;99.63
9335;BME280;4706;41.844;26.082;2022-12-07T09:03:24;100917.88;;;11.63;98.94
9335;BME280;4706;41.844;26.082;2022-12-07T09:05:50;100919.41;;;11.70;98.13
9335;BME280;4706;41.844;26.082;2022-12-07T09:08:18;100911.81;;;11.61;98.63
9335;BME280;4706;41.844;26.082;2022-12-07T09:10:43;100900.22;;;11.64;98.29
9335;BME280;4706;41.844;26.082;2022-12-07T09:13:09;100906.75;;;11.68;98.38
9335;BME280;4706;41.844;26.082;2022-12-07T09:15:34;100890.91;;;11.60;98.75
9335;BME280;4706;41.844;26.082;2022-12-07T09:18:00;100900.88;;;11.75;98.53
9335;BME280;4706;41.844;26.082;2022-12-07T09:20:25;100894.41;;;11.85;97.65
9335;BME280;4706;41.844;26.082;2022-12-07T09:22:51;100893.13;;;11.77;98.46
9335;BME280;4706;41.844;26.082;2022-12-07T09:25:16;100878.91;;;11.70;99.05
9335;BME280;4706;41.844;26.082;2022-12-07T09:27:42;100878.16;;;11.64;100.00
9335;BME280;4706;41.844;26.082;2022-12-07T09:30:08;100873.75;;;11.82;99.60
9335;BME280;4706;41.844;26.082;2022-12-07T09:32:33;100866.06;;;11.79;99.61
9335;BME280;4706;41.844;26.082;2022-12-07T09:34:59;100865.56;;;11.77;100.00
9335;BME280;4706;41.844;26.082;2022-12-07T09:37:24;100860.53;;;11.98;98.47
9335;BME280;4706;41.844;26.082;2022-12-07T09:39:50;100860.13;;;11.91;98.50
9335;BME280;4706;41.844;26.082;2022-12-07T09:44:50;100849.31;;;11.76;99.22
9335;BME280;4706;41.844;26.082;2022-12-07T09:47:15;100853.13;;;11.80;99.77
9335;BME280;4706;41.844;26.082;2022-12-07T09:49:41;100843.09;;;11.70;99.84
9335;BME280;4706;41.844;26.082;2022-12-07T09:54:35;100844.41;;;11.73;99.35
9335;BME280;4706;41.844;26.082;2022-12-07T09:57:02;100849.03;;;11.77;100.00
9335;BME280;4706;41.844;26.082;2022-12-07T09:59:28;100846.94;;;11.88;100.00
9335;BME280;4706;41.844;26.082;2022-12-07T10:01:55;100850.00;;;11.86;100.00
9335;BME280;4706;41.844;26.082;2022-12-07T10:04:25;100851.25;;;11.94;99.37
9335;BME280;4706;41.844;26.082;2022-12-07T10:06:51;100845.19;;;11.92;99.20
9335;BME280;4706;41.844;26.082;2022-12-07T10:09:20;100843.06;;;11.89;99.57
9335;BME280;4706;41.844;26.082;2022-12-07T10:12:07;100833.69;;;11.90;99.82
9335;BME280;4706;41.844;26.082;2022-12-07T10:14:37;100837.84;;;11.87;99.73
9335;BME280;4706;41.844;26.082;2022-12-07T10:17:31;100828.47;;;12.02;98.64
9335;BME280;4706;41.844;26.082;2022-12-07T10:22:37;100814.88;;;11.92;98.86
9335;BME280;4706;41.844;26.082;2022-12-07T10:25:18;100820.56;;;11.82;100.00
9335;BME280;4706;41.844;26.082;2022-12-07T10:27:57;100816.44;;;11.65;100.00
9335;BME280;4706;41.844;26.082;2022-12-07T10:30:23;100812.47;;;11.72;100.00
9335;BME280;4706;41.844;26.082;2022-12-07T10:32:48;100817.06;;;11.76;100.00
9335;BME280;4706;41.844;26.082;2022-12-07T10:35:30;100788.66;;;11.62;100.00
9335;BME280;4706;41.844;26.082;2022-12-07T10:37:58;100816.69;;;11.83;100.00
9335;BME280;4706;41.844;26.082;2022-12-07T10:51:11;100805.09;;;11.86;100.00
9335;BME280;4706;41.844;26.082;2022-12-07T10:54:14;100804.78;;;11.87;100.00
9335;BME280;4706;41.844;26.082;2022-12-07T11:02:35;100800.16;;;11.83;100.00
9335;BME280;4706;41.844;26.082;2022-12-07T11:05:22;100799.22;;;11.74;100.00
9335;BME280;4706;41.844;26.082;2022-12-07T11:10:34;100785.84;;;11.81;100.00
9335;BME280;4706;41.844;26.082;2022-12-07T11:15:53;100774.81;;;11.81;100.00
9335;BME280;4706;41.844;26.082;2022-12-07T11:34:15;100764.47;;;12.05;100.00
9335;BME280;4706;41.844;26.082;2022-12-07T11:36:50;100755.78;;;11.98;100.00
9335;BME280;4706;41.844;26.082;2022-12-07T11:41:54;100751.47;;;11.92;100.00
9335;BME280;4706;41.844;26.082;2022-12-07T11:44:27;100749.06;;;12.04;100.00
9335;BME280;4706;41.844;26.082;2022-12-07T11:47:04;100743.56;;;12.04;100.00
9335;BME280;4706;41.844;26.082;2022-12-07T11:52:05;100740.38;;;11.97;100.00
9335;BME280;4706;41.844;26.082;2022-12-07T11:54:35;100725.06;;;12.05;100.00
9335;BME280;4706;41.844;26.082;2022-12-07T11:57:16;100735.06;;;12.14;100.00
9335;BME280;4706;41.844;26.082;2022-12-07T11:59:47;100728.44;;;12.15;100.00
9335;BME280;4706;41.844;26.082;2022-12-07T12:02:18;100734.25;;;11.86;100.00
9335;BME280;4706;41.844;26.082;2022-12-07T12:05:18;100733.53;;;12.08;100.00
9335;BME280;4706;41.844;26.082;2022-12-07T12:07:54;100723.94;;;12.06;100.00
9335;BME280;4706;41.844;26.082;2022-12-07T12:10:44;100721.19;;;12.06;100.00
9335;BME280;4706;41.844;26.082;2022-12-07T12:19:27;100703.81;;;12.05;100.00
9335;BME280;4706;41.844;26.082;2022-12-07T12:22:09;100708.94;;;12.12;100.00
9335;BME280;4706;41.844;26.082;2022-12-07T12:24:37;100699.72;;;12.03;100.00
9335;BME280;4706;41.844;26.082;2022-12-07T12:27:16;100702.00;;;11.87;100.00
9335;BME280;4706;41.844;26.082;2022-12-07T12:29:44;100704.53;;;11.97;100.00
9335;BME280;4706;41.844;26.082;2022-12-07T12:38:23;100697.78;;;12.03;100.00
9335;BME280;4706;41.844;26.082;2022-12-07T12:40:49;100700.34;;;12.00;100.00
9335;BME280;4706;41.844;26.082;2022-12-07T12:48:54;100692.38;;;11.98;100.00
9335;BME280;4706;41.844;26.082;2022-12-07T12:51:37;100697.66;;;11.67;100.00
9335;BME280;4706;41.844;26.082;2022-12-07T12:54:05;100704.81;;;11.82;100.00
9335;BME280;4706;41.844;26.082;2022-12-07T12:56:50;100692.72;;;11.97;100.00
9335;BME280;4706;41.844;26.082;2022-12-07T12:59:35;100689.22;;;12.05;100.00
9335;BME280;4706;41.844;26.082;2022-12-07T13:12:57;100686.22;;;12.29;100.00
9335;BME280;4706;41.844;26.082;2022-12-07T13:15:35;100681.38;;;12.48;98.97
9335;BME280;4706;41.844;26.082;2022-12-07T13:20:51;100670.91;;;12.59;97.83
9335;BME280;4706;41.844;26.082;2022-12-07T13:23:37;100673.94;;;12.49;99.42
9335;BME280;4706;41.844;26.082;2022-12-07T13:26:24;100679.50;;;12.57;99.91
9335;BME280;4706;41.844;26.082;2022-12-07T13:29:19;100675.63;;;12.58;98.90
9335;BME280;4706;41.844;26.082;2022-12-07T13:31:55;100669.91;;;12.55;99.08
9335;BME280;4706;41.844;26.082;2022-12-07T13:34:35;100664.97;;;12.29;100.00
9335;BME280;4706;41.844;26.082;2022-12-07T13:39:51;100663.91;;;12.53;100.00
9335;BME280;4706;41.844;26.082;2022-12-07T13:42:28;100661.44;;;12.51;100.00
9335;BME280;4706;41.844;26.082;2022-12-07T13:44:55;100655.44;;;12.49;100.00
9335;BME280;4706;41.844;26.082;2022-12-07T13:49:55;100649.94;;;12.72;98.51
9335;BME280;4706;41.844;26.082;2022-12-07T13:52:26;100650.84;;;12.67;98.27
9335;BME280;4706;41.844;26.082;2022-12-07T13:55:01;100650.31;;;12.56;98.84
9335;BME280;4706;41.844;26.082;2022-12-07T13:57:29;100648.53;;;12.60;99.01
9335;BME280;4706;41.844;26.082;2022-12-07T13:59:56;100650.97;;;12.62;99.14
9335;BME280;4706;41.844;26.082;2022-12-07T14:02:30;100645.69;;;12.52;100.00
9335;BME280;4706;41.844;26.082;2022-12-07T14:05:08;100647.16;;;12.49;100.00
9335;BME280;4706;41.844;26.082;2022-12-07T14:07:34;100651.94;;;12.57;100.00
9335;BME280;4706;41.844;26.082;2022-12-07T14:10:04;100651.41;;;12.55;100.00
9335;BME280;4706;41.844;26.082;2022-12-07T14:12:32;100660.88;;;12.63;100.00
9335;BME280;4706;41.844;26.082;2022-12-07T14:14:59;100652.59;;;12.63;100.00
9335;BME280;4706;41.844;26.082;2022-12-07T14:17:27;100660.59;;;12.64;100.00
9335;BME280;4706;41.844;26.082;2022-12-07T14:19:57;100655.25;;;12.68;100.00
9335;BME280;4706;41.844;26.082;2022-12-07T14:24:58;100657.47;;;12.80;98.83
9335;BME280;4706;41.844;26.082;2022-12-07T14:27:24;100663.34;;;12.64;99.88
9335;BME280;4706;41.844;26.082;2022-12-07T14:29:56;100653.47;;;12.50;100.00
9335;BME280;4706;41.844;26.082;2022-12-07T14:32:26;100664.31;;;12.46;100.00
9335;BME280;4706;41.844;26.082;2022-12-07T14:35:03;100654.28;;;12.50;100.00
9335;BME280;4706;41.844;26.082;2022-12-07T14:37:33;100661.16;;;12.53;100.00
9335;BME280;4706;41.844;26.082;2022-12-07T14:39:58;100650.81;;;12.45;100.00
9335;BME280;4706;41.844;26.082;2022-12-07T14:42:27;100652.69;;;12.49;100.00
9335;BME280;4706;41.844;26.082;2022-12-07T14:44:55;100665.81;;;12.52;100.00
9335;BME280;4706;41.844;26.082;2022-12-07T14:47:21;100668.78;;;12.56;100.00
9335;BME280;4706;41.844;26.082;2022-12-07T14:49:47;100655.91;;;12.51;100.00
9335;BME280;4706;41.844;26.082;2022-12-07T14:52:16;100664.09;;;12.56;100.00
9335;BME280;4706;41.844;26.082;2022-12-07T14:54:42;100653.34;;;12.55;100.00
9335;BME280;4706;41.844;26.082;2022-12-07T14:57:09;100662.97;;;12.57;99.89
9335;BME280;4706;41.844;26.082;2022-12-07T14:59:35;100674.63;;;12.54;100.00
9335;BME280;4706;41.844;26.082;2022-12-07T15:02:01;100671.34;;;12.52;100.00
9335;BME280;4706;41.844;26.082;2022-12-07T15:04:26;100663.06;;;12.52;100.00
9335;BME280;4706;41.844;26.082;2022-12-07T15:06:59;100669.41;;;12.53;100.00
9335;BME280;4706;41.844;26.082;2022-12-07T15:09:25;100654.91;;;12.47;99.95
9335;BME280;4706;41.844;26.082;2022-12-07T15:11:51;100669.91;;;12.55;100.00